Alderson, West Virginia
Current Conditions -  °F | °C
As of 8:15 AM on Thursday 27 Nov 2014 (Local Time) from KLWB Reporting Station
Haze Haze  
Wind Chill: 33°   Ceiling: 5000
Heat Index: 33°   Visibility: 1.2mi
Dew Point: 32°   Wind: 0mph
Humidity: 96%   Direction: NA
Pressure: 29.98"   Gusts: NA
Location:  37.73°N, 80.64°W
Report Text: KLWB 271315Z AUTO 00000KT 1 1/4SM BR OVC050 01/00 A2998 RMK AO2 T00080002
Loading
Personal Weather Stations






























Interactive Weather Map New forecast layout! Learn more

10-Day Weather Forecast

Advertisements
Track Severe Weather on mobile